Time;durP1;ratioP1;P1;durP2;ratioP2;P2;SDS_P1;SDS_P2;PMS_P1;PMS_P2;Temp;Humidity;BMP_temperature;BMP_pressure;BME280_temperature;BME280_humidity;BME280_pressure;Samples;Min_cycle;Max_cycle;Signal;HPM_P1;HPM_P2
2022/05/01 00:01:22;;;;;;;;;;;;;;;15.41;98.71;99608.44;5063569;28;19948;-38
2022/05/01 00:03:48;;;;;;;;;;;;;;;15.29;98.72;99610.72;5063819;28;19964;-38
2022/05/01 00:06:13;;;;;;;;;;;;;;;15.57;96.64;99610.41;5063100;28;19983;-38
2022/05/01 00:08:42;;;;;;;;;;;;;;;15.51;96.31;99608.91;5063946;28;19921;-38
2022/05/01 00:11:10;;;;;;;;;;;;;;;15.14;95.83;99609.59;5064921;28;19923;-38
2022/05/01 00:13:35;;;;;;;;;;;;;;;15.32;96.08;99614.03;5062168;28;20027;-38
2022/05/01 00:16:01;;;;;;;;;;;;;;;15.48;95.76;99609.03;5062992;28;20193;-38
2022/05/01 00:18:26;;;;;;;;;;;;;;;15.41;96.41;99612.78;5064716;28;20019;-38
2022/05/01 00:20:51;;;;;;;;;;;;;;;15.41;96.87;99608.44;5064235;28;19978;-38
2022/05/01 00:23:17;;;;;;;;;;;;;;;15.43;96.64;99606.63;5066356;28;19934;-38
2022/05/01 00:25:43;;;;;;;;;;;;;;;15.47;96.13;99612.53;5063520;28;20030;-38
2022/05/01 00:28:08;;;;;;;;;;;;;;;15.48;95.89;99612.47;5063352;28;20270;-38
2022/05/01 00:30:34;;;;;;;;;;;;;;;15.54;95.49;99608.78;5061039;28;19920;-38
2022/05/01 00:38:27;;;;;;;;;;;;;;;15.28;96.64;99617.66;5063367;28;19993;-38
2022/05/01 00:40:54;;;;;;;;;;;;;;;15.33;96.91;99615.72;5062726;28;20385;-38
2022/05/01 00:43:19;;;;;;;;;;;;;;;15.43;96.43;99622.19;5061860;28;19916;-38
2022/05/01 00:45:44;;;;;;;;;;;;;;;15.18;96.84;99612.00;5065435;28;20029;-38
2022/05/01 00:48:10;;;;;;;;;;;;;;;14.72;98.47;99613.00;5061331;28;19969;-38
2022/05/01 00:50:35;;;;;;;;;;;;;;;14.86;98.68;99615.91;5061294;28;19923;-38
2022/05/01 00:53:00;;;;;;;;;;;;;;;14.48;100.00;99610.41;5062286;28;20451;-38
2022/05/01 00:55:26;;;;;;;;;;;;;;;14.31;100.00;99612.81;5063735;28;20586;-38
2022/05/01 00:57:51;;;;;;;;;;;;;;;14.53;100.00;99615.41;5061631;28;20465;-38
2022/05/01 01:00:16;;;;;;;;;;;;;;;14.51;100.00;99610.31;5061076;28;20168;-38
2022/05/01 01:02:42;;;;;;;;;;;;;;;14.43;100.00;99618.34;5059517;28;20018;-37
2022/05/01 01:05:07;;;;;;;;;;;;;;;14.51;100.00;99619.84;5062750;28;20262;-38
2022/05/01 01:07:33;;;;;;;;;;;;;;;14.66;100.00;99610.66;5060179;28;19920;-38
2022/05/01 01:09:59;;;;;;;;;;;;;;;14.79;99.97;99614.44;5063857;28;19917;-38
2022/05/01 01:15:08;;;;;;;;;;;;;;;14.58;100.00;99616.97;5062147;28;19990;-38
2022/05/01 01:17:36;;;;;;;;;;;;;;;14.52;100.00;99622.34;5061564;28;20369;-37
2022/05/01 01:20:01;;;;;;;;;;;;;;;14.73;100.00;99623.28;5063096;28;19974;-37
2022/05/01 01:22:26;;;;;;;;;;;;;;;14.79;100.00;99628.25;5060072;28;19920;-38
2022/05/01 01:24:51;;;;;;;;;;;;;;;16.24;93.18;99610.06;5062464;28;19921;-38
2022/05/01 01:27:17;;;;;;;;;;;;;;;16.49;89.46;99608.94;5062953;28;20389;-38
2022/05/01 01:32:26;;;;;;;;;;;;;;;16.58;88.32;99608.50;5062357;28;20039;-38
2022/05/01 01:34:51;;;;;;;;;;;;;;;16.58;88.58;99607.63;5060938;28;19979;-38
2022/05/01 01:37:16;;;;;;;;;;;;;;;16.59;88.69;99610.19;5061746;28;20847;-38
2022/05/01 01:39:42;;;;;;;;;;;;;;;16.62;88.56;99603.97;5063882;28;19928;-38
2022/05/01 01:42:07;;;;;;;;;;;;;;;16.62;88.88;99604.81;5061029;28;19920;-38
2022/05/01 01:44:37;;;;;;;;;;;;;;;16.62;88.87;99607.41;5061660;28;19978;-38
2022/05/01 01:47:02;;;;;;;;;;;;;;;16.66;88.95;99608.13;5061779;28;20793;-37
2022/05/01 01:49:27;;;;;;;;;;;;;;;16.65;88.72;99609.91;5063562;28;19920;-38
2022/05/01 01:51:52;;;;;;;;;;;;;;;16.61;88.92;99605.75;5061634;28;19924;-37
2022/05/01 01:54:18;;;;;;;;;;;;;;;16.68;89.19;99599.34;5065039;28;19931;-38
2022/05/01 01:56:43;;;;;;;;;;;;;;;16.70;89.70;99607.06;5061766;28;19931;-38
2022/05/01 01:59:08;;;;;;;;;;;;;;;16.71;89.74;99603.53;5060122;28;19924;-37
2022/05/01 02:01:33;;;;;;;;;;;;;;;16.62;90.25;99604.81;5060248;28;19975;-38
2022/05/01 02:03:59;;;;;;;;;;;;;;;16.51;90.66;99607.94;5060130;28;20034;-37
2022/05/01 02:06:24;;;;;;;;;;;;;;;16.57;90.85;99606.81;5062721;28;19959;-38
2022/05/01 02:08:51;;;;;;;;;;;;;;;16.61;90.61;99603.16;5063263;28;20143;-38
2022/05/01 02:11:17;;;;;;;;;;;;;;;16.81;88.44;99598.78;5060988;28;20379;-38
2022/05/01 02:13:42;;;;;;;;;;;;;;;16.65;89.95;99599.50;5059653;28;20447;-37
2022/05/01 02:16:08;;;;;;;;;;;;;;;16.62;90.53;99607.41;5061205;28;19999;-38
2022/05/01 02:18:34;;;;;;;;;;;;;;;16.58;87.85;99602.44;5063511;28;20914;-38
2022/05/01 02:23:43;;;;;;;;;;;;;;;16.23;89.42;99594.53;5063398;28;19923;-37
2022/05/01 02:26:08;;;;;;;;;;;;;;;16.05;89.63;99604.00;5066702;28;20976;-37
2022/05/01 02:28:33;;;;;;;;;;;;;;;16.35;89.55;99590.50;5066655;28;20316;-38
2022/05/01 02:30:58;;;;;;;;;;;;;;;16.49;88.85;99594.16;5065689;28;19923;-38
2022/05/01 02:33:25;;;;;;;;;;;;;;;16.70;86.69;99586.28;5063970;28;19924;-38
2022/05/01 02:35:50;;;;;;;;;;;;;;;16.58;85.40;99592.91;5065775;28;19923;-38
2022/05/01 02:38:15;;;;;;;;;;;;;;;16.58;87.74;99589.44;5066406;28;20524;-37
2022/05/01 02:40:40;;;;;;;;;;;;;;;16.71;89.09;99586.19;5064398;28;19927;-38
2022/05/01 02:43:05;;;;;;;;;;;;;;;16.66;90.45;99590.75;5067071;28;20028;-38
2022/05/01 02:45:31;;;;;;;;;;;;;;;16.37;92.82;99588.69;5066996;28;19928;-38
2022/05/01 02:47:56;;;;;;;;;;;;;;;15.51;98.11;99597.66;5065021;28;19924;-37
2022/05/01 02:50:22;;;;;;;;;;;;;;;15.04;100.00;99593.56;5062923;28;19920;-38
2022/05/01 02:52:47;;;;;;;;;;;;;;;15.01;100.00;99610.09;5065373;28;19927;-38
2022/05/01 02:55:14;;;;;;;;;;;;;;;14.90;100.00;99601.91;5068371;28;19927;-37
2022/05/01 02:57:39;;;;;;;;;;;;;;;14.80;100.00;99600.56;5067522;28;19924;-38
2022/05/01 03:00:05;;;;;;;;;;;;;;;15.06;100.00;99596.94;5068027;28;19920;-38
2022/05/01 03:02:30;;;;;;;;;;;;;;;15.32;100.00;99593.25;5062009;28;20559;-38
2022/05/01 03:04:55;;;;;;;;;;;;;;;15.40;100.00;99582.56;5061117;28;20017;-37
2022/05/01 03:07:21;;;;;;;;;;;;;;;15.66;100.00;99584.03;5064314;28;19937;-38
2022/05/01 03:09:46;;;;;;;;;;;;;;;15.55;100.00;99584.50;5065647;28;20028;-38
2022/05/01 03:12:11;;;;;;;;;;;;;;;15.93;99.83;99584.59;5062439;28;19932;-38
2022/05/01 03:14:36;;;;;;;;;;;;;;;15.93;98.75;99584.59;5065119;28;19923;-37
2022/05/01 03:17:02;;;;;;;;;;;;;;;16.09;97.73;99582.16;5065849;28;19924;-37
2022/05/01 03:22:10;;;;;;;;;;;;;;;16.25;93.33;99567.53;5064378;28;20100;-38
2022/05/01 03:24:36;;;;;;;;;;;;;;;15.63;95.85;99571.19;5064672;28;19920;-38
2022/05/01 03:27:01;;;;;;;;;;;;;;;15.05;99.13;99579.69;5065296;28;19973;-37
2022/05/01 03:29:27;;;;;;;;;;;;;;;15.60;98.16;99577.38;5065960;28;20338;-37
2022/05/01 03:31:53;;;;;;;;;;;;;;;14.10;100.00;99589.41;5063246;28;19932;-38
2022/05/01 03:34:18;;;;;;;;;;;;;;;15.77;99.82;99568.84;5065800;28;19916;-38
2022/05/01 03:36:47;;;;;;;;;;;;;;;15.92;94.82;99571.69;5064417;28;19936;-38
2022/05/01 03:39:13;;;;;;;;;;;;;;;14.73;99.24;99586.16;5061550;28;19960;-37
2022/05/01 03:41:41;;;;;;;;;;;;;;;15.48;99.63;99576.13;5063079;28;20811;-38
2022/05/01 03:44:07;;;;;;;;;;;;;;;15.84;97.69;99575.47;5062916;28;19920;-38
2022/05/01 03:46:33;;;;;;;;;;;;;;;15.79;98.89;99574.84;5064114;28;19958;-38
2022/05/01 03:48:58;;;;;;;;;;;;;;;15.74;98.89;99576.78;5064959;28;20002;-38
2022/05/01 03:51:23;;;;;;;;;;;;;;;15.70;98.37;99580.41;5064934;28;20369;-38
2022/05/01 03:53:48;;;;;;;;;;;;;;;15.79;97.77;99572.22;5065372;28;20370;-38
2022/05/01 03:56:14;;;;;;;;;;;;;;;15.75;97.88;99581.06;5066189;28;19927;-38
2022/05/01 03:58:39;;;;;;;;;;;;;;;15.84;98.42;99585.00;5064084;28;19920;-38
2022/05/01 04:01:04;;;;;;;;;;;;;;;15.87;98.94;99577.94;5063921;28;20506;-38
2022/05/01 04:03:30;;;;;;;;;;;;;;;15.94;98.47;99575.06;5063373;28;19920;-38
2022/05/01 04:05:55;;;;;;;;;;;;;;;15.83;99.50;99575.56;5060387;28;19955;-37
2022/05/01 04:08:20;;;;;;;;;;;;;;;15.81;100.00;99586.00;5062362;28;19927;-37
2022/05/01 04:10:49;;;;;;;;;;;;;;;15.96;99.08;99578.44;5065551;28;20021;-37
2022/05/01 04:13:14;;;;;;;;;;;;;;;15.91;99.79;99581.22;5059950;28;19931;-38
2022/05/01 04:15:40;;;;;;;;;;;;;;;15.67;100.00;99577.94;5063070;28;20460;-38
2022/05/01 04:18:05;;;;;;;;;;;;;;;15.69;100.00;99578.69;5060646;28;19931;-38
2022/05/01 04:20:32;;;;;;;;;;;;;;;15.66;100.00;99576.25;5062586;28;19927;-38
2022/05/01 04:22:58;;;;;;;;;;;;;;;15.71;100.00;99581.25;5061971;28;20584;-38
2022/05/01 04:25:24;;;;;;;;;;;;;;;15.73;100.00;99577.69;5063080;28;20011;-38
2022/05/01 04:27:53;;;;;;;;;;;;;;;15.83;100.00;99580.75;5062310;28;19926;-38
2022/05/01 04:30:19;;;;;;;;;;;;;;;15.88;100.00;99583.97;5062746;28;19924;-38
2022/05/01 04:32:50;;;;;;;;;;;;;;;15.92;100.00;99576.88;5060398;28;19975;-38
2022/05/01 04:35:22;;;;;;;;;;;;;;;15.86;100.00;99581.44;5065066;28;20622;-38
2022/05/01 04:37:48;;;;;;;;;;;;;;;16.00;100.00;99579.97;5062761;28;19928;-38
2022/05/01 04:40:14;;;;;;;;;;;;;;;15.83;100.00;99576.38;5064109;28;19934;-38
2022/05/01 04:42:40;;;;;;;;;;;;;;;15.57;99.92;99582.66;5061554;28;19963;-38
2022/05/01 04:45:05;;;;;;;;;;;;;;;15.79;100.00;99577.44;5061641;28;19942;-38
2022/05/01 04:47:30;;;;;;;;;;;;;;;15.96;100.00;99574.06;5062598;28;19943;-38
2022/05/01 04:49:56;;;;;;;;;;;;;;;15.94;100.00;99577.66;5061880;28;19919;-38
2022/05/01 04:52:21;;;;;;;;;;;;;;;15.76;100.00;99572.38;5062701;28;19924;-38
2022/05/01 04:54:46;;;;;;;;;;;;;;;15.70;100.00;99570.00;5062192;28;19972;-38
2022/05/01 04:57:13;;;;;;;;;;;;;;;15.70;100.00;99580.41;5064119;28;19932;-38
2022/05/01 04:59:38;;;;;;;;;;;;;;;15.79;100.00;99577.44;5063852;28;19920;-38
2022/05/01 05:02:03;;;;;;;;;;;;;;;15.78;100.00;99570.56;5060805;28;19927;-38
2022/05/01 05:04:29;;;;;;;;;;;;;;;15.59;100.00;99580.03;5062379;28;19964;-38
2022/05/01 05:06:54;;;;;;;;;;;;;;;15.57;100.00;99581.84;5063383;28;20018;-38
2022/05/01 05:12:05;;;;;;;;;;;;;;;14.82;100.00;99588.38;5064086;28;19923;-38
2022/05/01 05:14:30;;;;;;;;;;;;;;;15.84;100.00;99588.44;5065859;28;19920;-38
2022/05/01 05:16:57;;;;;;;;;;;;;;;16.08;100.00;99583.09;5064066;28;19932;-38
2022/05/01 05:19:22;;;;;;;;;;;;;;;16.08;100.00;99588.28;5062625;28;20295;-38
2022/05/01 05:21:47;;;;;;;;;;;;;;;15.92;100.00;99587.25;5065753;28;19927;-38
2022/05/01 05:24:12;;;;;;;;;;;;;;;16.15;100.00;99584.50;5064198;28;19920;-38
2022/05/01 05:26:38;;;;;;;;;;;;;;;16.22;100.00;99583.28;5064847;28;20452;-38
2022/05/01 05:29:03;;;;;;;;;;;;;;;16.20;100.00;99595.50;5062669;28;20729;-38
2022/05/01 05:31:28;;;;;;;;;;;;;;;16.31;100.00;99590.66;5063399;28;19920;-38
2022/05/01 05:33:54;;;;;;;;;;;;;;;16.35;100.00;99596.53;5064960;28;19959;-38
2022/05/01 05:36:19;;;;;;;;;;;;;;;16.56;100.00;99597.31;5061335;28;19978;-38
2022/05/01 05:38:44;;;;;;;;;;;;;;;16.61;100.00;99597.09;5064229;28;20629;-38
2022/05/01 05:41:10;;;;;;;;;;;;;;;16.62;100.00;99597.00;5061998;28;19974;-38
2022/05/01 05:43:35;;;;;;;;;;;;;;;16.78;99.57;99596.28;5062950;28;20001;-38
2022/05/01 05:46:00;;;;;;;;;;;;;;;16.63;99.72;99603.09;5061476;28;20008;-38
2022/05/01 05:48:25;;;;;;;;;;;;;;;16.77;97.56;99600.66;5062949;28;20711;-38
2022/05/01 05:50:50;;;;;;;;;;;;;;;16.42;98.90;99607.50;5063048;28;19920;-38
2022/05/01 05:53:16;;;;;;;;;;;;;;;16.71;97.83;99604.38;5061548;28;19973;-38
2022/05/01 05:55:41;;;;;;;;;;;;;;;16.85;96.72;99602.91;5060027;28;19962;-38
2022/05/01 05:58:07;;;;;;;;;;;;;;;17.07;93.51;99602.72;5064411;28;19972;-38
2022/05/01 06:00:32;;;;;;;;;;;;;;;16.58;95.07;99610.25;5063725;28;19927;-38
2022/05/01 06:02:57;;;;;;;;;;;;;;;16.35;100.00;99606.09;5064671;28;19928;-38
2022/05/01 06:05:23;;;;;;;;;;;;;;;16.78;97.57;99614.50;5065105;28;19927;-38
2022/05/01 06:07:48;;;;;;;;;;;;;;;17.04;96.60;99605.50;5064624;28;19919;-38
2022/05/01 06:10:13;;;;;;;;;;;;;;;16.71;96.78;99611.34;5066361;28;19970;-38
2022/05/01 06:12:42;;;;;;;;;;;;;;;17.07;96.70;99605.31;5067398;28;20456;-38
2022/05/01 06:15:08;;;;;;;;;;;;;;;17.19;96.55;99614.28;5068261;28;20603;-38
2022/05/01 06:17:33;;;;;;;;;;;;;;;17.00;98.10;99615.19;5065922;28;20001;-38
2022/05/01 06:19:58;;;;;;;;;;;;;;;17.04;95.85;99603.72;5063795;28;20016;-38
2022/05/01 06:22:23;;;;;;;;;;;;;;;17.18;94.84;99610.00;5066800;28;19924;-38
2022/05/01 06:24:49;;;;;;;;;;;;;;;17.18;95.14;99612.63;5064196;28;19920;-38
2022/05/01 06:27:14;;;;;;;;;;;;;;;16.31;96.68;99621.84;5063331;28;19952;-38
2022/05/01 06:29:39;;;;;;;;;;;;;;;16.62;96.95;99612.63;5066446;28;19961;-38
2022/05/01 06:32:05;;;;;;;;;;;;;;;16.71;95.53;99609.59;5063591;28;19921;-38
2022/05/01 06:34:30;;;;;;;;;;;;;;;17.08;94.01;99609.59;5064430;28;20042;-38
2022/05/01 06:36:55;;;;;;;;;;;;;;;17.45;94.29;99616.44;5065657;28;19931;-38
2022/05/01 06:39:20;;;;;;;;;;;;;;;17.10;96.07;99616.41;5064332;28;20899;-38
2022/05/01 06:41:46;;;;;;;;;;;;;;;16.97;96.01;99612.75;5063740;28;20351;-38
2022/05/01 06:44:11;;;;;;;;;;;;;;;16.22;100.00;99627.47;5064407;28;19919;-38
2022/05/01 06:46:36;;;;;;;;;;;;;;;16.37;100.00;99619.88;5062574;28;19917;-38
2022/05/01 06:49:01;;;;;;;;;;;;;;;16.66;100.00;99626.34;5065634;28;19938;-38
2022/05/01 06:51:26;;;;;;;;;;;;;;;16.58;100.00;99624.09;5063956;28;19950;-38
2022/05/01 06:53:52;;;;;;;;;;;;;;;17.67;100.00;99623.16;5064231;28;19928;-38
2022/05/01 06:56:17;;;;;;;;;;;;;;;16.84;99.91;99620.28;5066990;28;20597;-37
2022/05/01 06:58:42;;;;;;;;;;;;;;;17.97;96.69;99619.00;5067544;28;19950;-38
2022/05/01 07:01:07;;;;;;;;;;;;;;;18.48;92.92;99615.44;5069129;28;19928;-38
2022/05/01 07:03:33;;;;;;;;;;;;;;;17.78;92.98;99626.03;5064892;28;19924;-38
2022/05/01 07:06:00;;;;;;;;;;;;;;;17.96;93.90;99622.50;5068270;28;20003;-38
2022/05/01 07:08:26;;;;;;;;;;;;;;;17.82;95.81;99630.22;5063308;28;19920;-38
2022/05/01 07:10:51;;;;;;;;;;;;;;;17.50;96.31;99630.06;5062923;28;19920;-38
2022/05/01 07:13:16;;;;;;;;;;;;;;;17.07;97.74;99636.56;5062552;28;19920;-38
2022/05/01 07:15:42;;;;;;;;;;;;;;;16.94;100.00;99631.09;5067738;28;19984;-38
2022/05/01 07:18:07;;;;;;;;;;;;;;;16.77;100.00;99633.63;5065309;28;19956;-38
2022/05/01 07:20:35;;;;;;;;;;;;;;;16.68;100.00;99635.75;5065584;28;19939;-37
2022/05/01 07:23:01;;;;;;;;;;;;;;;17.25;98.04;99629.63;5063787;28;19952;-37
2022/05/01 07:25:26;;;;;;;;;;;;;;;17.81;96.50;99622.44;5064179;28;19920;-37
2022/05/01 07:27:52;;;;;;;;;;;;;;;17.87;97.93;99632.56;5064541;28;19916;-37
2022/05/01 07:30:17;;;;;;;;;;;;;;;18.09;92.00;99627.09;5063579;28;20015;-37
2022/05/01 07:32:42;;;;;;;;;;;;;;;17.06;100.00;99635.72;5063870;28;20353;-37
2022/05/01 07:35:08;;;;;;;;;;;;;;;17.51;98.68;99636.94;5062888;28;19920;-37
2022/05/01 07:37:33;;;;;;;;;;;;;;;18.12;96.21;99632.97;5061069;28;19932;-37
2022/05/01 07:39:59;;;;;;;;;;;;;;;18.44;91.88;99624.34;5065139;28;19920;-37
2022/05/01 07:42:25;;;;;;;;;;;;;;;17.97;92.24;99629.41;5062780;28;19925;-37
2022/05/01 07:44:50;;;;;;;;;;;;;;;16.75;100.00;99640.66;5061751;28;20086;-38
2022/05/01 07:47:16;;;;;;;;;;;;;;;17.01;100.00;99640.28;5065489;28;19923;-37
2022/05/01 07:49:41;;;;;;;;;;;;;;;17.46;98.96;99632.91;5064504;28;19924;-38
2022/05/01 07:52:07;;;;;;;;;;;;;;;18.50;93.77;99626.63;5062101;28;19920;-37
2022/05/01 07:54:32;;;;;;;;;;;;;;;18.26;91.29;99629.63;5061172;28;19977;-38
2022/05/01 07:56:57;;;;;;;;;;;;;;;18.86;90.98;99623.78;5062575;28;19924;-38
2022/05/01 07:59:22;;;;;;;;;;;;;;;19.92;86.00;99620.22;5063161;28;19920;-37
2022/05/01 08:01:48;;;;;;;;;;;;;;;20.63;75.97;99619.31;5061595;28;20011;-38
2022/05/01 08:04:28;;;;;;;;;;;;;;;20.80;75.20;99613.03;5062404;28;19932;-37
2022/05/01 08:06:54;;;;;;;;;;;;;;;19.45;74.41;99626.47;5061498;28;19936;-37
2022/05/01 08:09:19;;;;;;;;;;;;;;;19.83;76.39;99615.56;5062915;28;20031;-38
2022/05/01 08:11:44;;;;;;;;;;;;;;;20.52;72.63;99610.44;5058913;28;19920;-39
2022/05/01 08:14:12;;;;;;;;;;;;;;;19.21;74.72;99623.53;5064173;28;20766;-39
2022/05/01 08:16:37;;;;;;;;;;;;;;;20.18;74.39;99616.00;5061383;28;20671;-38
2022/05/01 08:21:46;;;;;;;;;;;;;;;18.65;76.31;99627.53;5060079;28;19931;-38
2022/05/01 08:24:11;;;;;;;;;;;;;;;18.27;80.86;99623.50;5062262;28;20550;-39
2022/05/01 08:26:37;;;;;;;;;;;;;;;20.03;73.46;99622.19;5063278;28;20498;-38
2022/05/01 08:29:02;;;;;;;;;;;;;;;20.22;71.05;99624.50;5060498;28;19973;-38
2022/05/01 08:31:28;;;;;;;;;;;;;;;20.25;69.60;99624.31;5060296;28;19920;-38
2022/05/01 08:33:54;;;;;;;;;;;;;;;20.94;69.28;99619.13;5062428;28;20350;-38
2022/05/01 08:36:19;;;;;;;;;;;;;;;20.36;68.70;99624.47;5063642;28;19927;-38
2022/05/01 08:38:45;;;;;;;;;;;;;;;20.87;68.36;99619.53;5061526;28;19924;-38
2022/05/01 08:41:10;;;;;;;;;;;;;;;19.14;70.71;99628.28;5060622;28;19955;-38
2022/05/01 08:43:36;;;;;;;;;;;;;;;19.27;74.26;99627.56;5058330;28;20387;-39
2022/05/01 08:46:20;;;;;;;;;;;;;;;19.90;71.99;99622.09;5058739;28;20381;-38
2022/05/01 08:49:04;;;;;;;;;;;;;;;20.55;65.20;99618.94;5059212;28;20454;-39
2022/05/01 08:51:37;;;;;;;;;;;;;;;19.74;68.54;99622.19;5063354;28;19920;-38
2022/05/01 08:54:03;;;;;;;;;;;;;;;19.40;68.53;99623.31;5059485;28;20656;-38
2022/05/01 08:56:28;;;;;;;;;;;;;;;20.99;64.02;99620.50;5061139;28;19927;-47
2022/05/01 08:58:54;;;;;;;;;;;;;;;20.97;62.06;99618.94;5063186;28;19920;-47
2022/05/01 09:01:20;;;;;;;;;;;;;;;20.71;62.64;99613.63;5043865;28;19985;-45
2022/05/01 09:03:45;;;;;;;;;;;;;;;20.71;66.37;99616.22;5057251;28;21196;-46
2022/05/01 09:06:11;;;;;;;;;;;;;;;18.44;72.25;99626.97;5060915;28;19920;-46
2022/05/01 09:08:40;;;;;;;;;;;;;;;18.97;68.66;99620.56;5063818;28;19920;-45
2022/05/01 09:13:49;;;;;;;;;;;;;;;18.95;73.72;99627.63;5060907;28;20273;-48
2022/05/01 09:16:15;;;;;;;;;;;;;;;20.21;71.78;99621.06;5060289;28;19916;-47
2022/05/01 09:18:43;;;;;;;;;;;;;;;19.18;64.67;99623.69;5059659;28;19967;-48
2022/05/01 09:21:09;;;;;;;;;;;;;;;19.91;63.08;99612.47;5063813;28;19924;-49
2022/05/01 09:23:41;;;;;;;;;;;;;;;18.32;70.87;99624.09;5061395;28;19973;-50
2022/05/01 09:26:08;;;;;;;;;;;;;;;20.46;64.01;99611.69;5060891;28;19959;-45
2022/05/01 09:28:34;;;;;;;;;;;;;;;20.95;65.82;99620.81;5062584;28;19927;-45
2022/05/01 09:30:59;;;;;;;;;;;;;;;20.30;62.92;99624.03;5061578;28;20800;-46
2022/05/01 09:33:25;;;;;;;;;;;;;;;21.16;59.24;99614.16;5056724;28;19955;-47
2022/05/01 09:35:50;;;;;;;;;;;;;;;21.25;58.83;99610.09;5060344;28;20397;-48
2022/05/01 09:38:15;;;;;;;;;;;;;;;20.80;61.53;99620.88;5060237;28;20006;-45
2022/05/01 09:40:47;;;;;;;;;;;;;;;19.92;54.03;99615.00;5062357;28;20309;-46
2022/05/01 09:43:31;;;;;;;;;;;;;;;21.15;58.66;99611.66;5060141;28;20027;-47
2022/05/01 09:46:09;;;;;;;;;;;;;;;21.27;56.00;99611.66;5061395;28;19932;-45
2022/05/01 09:48:34;;;;;;;;;;;;;;;21.57;54.43;99607.94;5056031;28;19936;-46
2022/05/01 09:50:59;;;;;;;;;;;;;;;21.05;45.72;99603.53;5056950;28;19928;-48
2022/05/01 09:53:26;;;;;;;;;;;;;;;21.19;48.96;99600.88;5061400;28;19920;-45
2022/05/01 09:56:01;;;;;;;;;;;;;;;21.47;50.39;99601.66;5061572;28;19931;-46
2022/05/01 09:58:30;;;;;;;;;;;;;;;22.86;49.26;99598.91;5062066;28;20799;-46
2022/05/01 10:00:55;;;;;;;;;;;;;;;21.72;47.48;99606.91;5062255;28;20301;-46
2022/05/01 10:03:21;;;;;;;;;;;;;;;22.18;48.43;99597.63;5059103;28;19965;-48
2022/05/01 10:05:47;;;;;;;;;;;;;;;22.57;49.99;99594.94;5061186;28;20705;-45
2022/05/01 10:08:12;;;;;;;;;;;;;;;22.07;48.12;99601.00;5040073;28;19921;-46
2022/05/01 10:10:38;;;;;;;;;;;;;;;21.98;48.53;99596.41;5058786;28;20721;-46
2022/05/01 10:13:03;;;;;;;;;;;;;;;23.27;45.98;99587.13;5054343;28;19927;-44
2022/05/01 10:15:28;;;;;;;;;;;;;;;22.52;46.13;99590.00;5057439;28;20013;-46
2022/05/01 10:17:53;;;;;;;;;;;;;;;23.16;44.83;99585.28;5057754;28;19931;-46
2022/05/01 10:20:20;;;;;;;;;;;;;;;22.57;42.26;99581.81;5058204;28;19927;-46
2022/05/01 10:22:45;;;;;;;;;;;;;;;21.16;45.11;99582.72;5074950;28;19920;-47
2022/05/01 10:25:12;;;;;;;;;;;;;;;22.95;44.39;99579.00;5061438;28;19977;-46
2022/05/01 10:27:43;;;;;;;;;;;;;;;23.56;42.44;99577.03;5059620;28;20456;-49
2022/05/01 10:33:01;;;;;;;;;;;;;;;23.15;44.44;99572.28;5057709;28;20612;-45
2022/05/01 10:35:45;;;;;;;;;;;;;;;22.08;42.28;99576.47;5058728;28;19999;-46
2022/05/01 10:38:28;;;;;;;;;;;;;;;23.05;42.75;99573.94;5059616;28;20028;-45
2022/05/01 10:40:55;;;;;;;;;;;;;;;22.09;43.54;99574.69;5059092;28;19920;-48
2022/05/01 10:43:25;;;;;;;;;;;;;;;22.39;40.80;99563.81;5056499;28;19963;-49
2022/05/01 10:45:51;;;;;;;;;;;;;;;22.02;43.58;99566.41;5064462;28;19923;-47
2022/05/01 10:48:21;;;;;;;;;;;;;;;21.62;43.36;99563.94;5056663;28;20171;-47
2022/05/01 10:50:46;;;;;;;;;;;;;;;22.33;43.40;99564.25;5061269;28;20030;-48
2022/05/01 10:53:16;;;;;;;;;;;;;;;22.83;41.09;99557.13;5062865;28;19949;-47
2022/05/01 10:55:55;;;;;;;;;;;;;;;23.02;39.83;99556.59;5062665;28;20415;-46
2022/05/01 10:58:27;;;;;;;;;;;;;;;22.30;40.79;99548.72;5060918;28;19954;-48
2022/05/01 11:00:56;;;;;;;;;;;;;;;22.98;38.38;99545.44;5065944;28;19981;-39
2022/05/01 11:03:22;;;;;;;;;;;;;;;21.60;44.02;99555.34;5064000;28;19924;-38
2022/05/01 11:05:50;;;;;;;;;;;;;;;21.01;40.51;99545.31;5064293;28;20091;-38
2022/05/01 11:08:15;;;;;;;;;;;;;;;24.99;36.58;99526.16;5062947;28;20376;-39
2022/05/01 11:10:41;;;;;;;;;;;;;;;23.89;38.89;99532.47;5062811;28;19927;-39
2022/05/01 11:13:07;;;;;;;;;;;;;;;23.62;37.79;99528.38;5064438;28;19916;-39
2022/05/01 11:15:32;;;;;;;;;;;;;;;22.60;39.00;99534.31;5063171;28;19920;-39
2022/05/01 11:17:57;;;;;;;;;;;;;;;23.52;37.10;99527.44;5063084;28;19931;-39
2022/05/01 11:20:24;;;;;;;;;;;;;;;24.13;38.18;99517.38;5062675;28;19920;-39
2022/05/01 11:22:49;;;;;;;;;;;;;;;22.73;38.52;99525.44;5063299;28;19962;-38
2022/05/01 11:25:18;;;;;;;;;;;;;;;23.87;38.51;99519.44;5063882;28;19925;-47
2022/05/01 11:27:48;;;;;;;;;;;;;;;25.00;37.48;99519.94;5063158;28;19928;-47
2022/05/01 11:30:19;;;;;;;;;;;;;;;25.85;36.81;99510.91;5063757;28;19922;-47
2022/05/01 11:32:56;;;;;;;;;;;;;;;24.58;36.21;99514.59;5063120;28;19927;-46
2022/05/01 11:35:21;;;;;;;;;;;;;;;23.74;37.83;99521.31;5062667;28;20026;-46
2022/05/01 11:37:48;;;;;;;;;;;;;;;22.33;38.04;99517.84;5059482;28;19941;-47
2022/05/01 11:40:21;;;;;;;;;;;;;;;24.32;36.22;99506.19;5065315;28;19920;-45
2022/05/01 11:42:46;;;;;;;;;;;;;;;25.42;37.58;99503.25;5046649;28;19956;-47
2022/05/01 11:45:11;;;;;;;;;;;;;;;25.23;35.36;99496.94;5063880;28;20012;-44
2022/05/01 11:47:37;;;;;;;;;;;;;;;25.61;36.30;99502.50;5064589;28;19916;-50
2022/05/01 11:50:02;;;;;;;;;;;;;;;24.99;38.11;99502.44;5064635;28;19920;-43
2022/05/01 11:52:28;;;;;;;;;;;;;;;23.74;38.16;99495.91;5059755;28;20460;-44
2022/05/01 11:54:53;;;;;;;;;;;;;;;24.50;37.27;99485.47;5060896;28;19927;-43
2022/05/01 12:02:57;;;;;;;;;;;;;;;25.72;36.08;99481.31;5061257;28;19927;-47
2022/05/01 12:05:22;;;;;;;;;;;;;;;26.55;35.89;99473.97;5064344;28;20453;-47
2022/05/01 12:07:57;;;;;;;;;;;;;;;24.75;33.52;99475.53;5061936;28;19993;-48
2022/05/01 12:10:22;;;;;;;;;;;;;;;25.04;38.02;99479.19;5062420;28;19952;-47
2022/05/01 12:12:48;;;;;;;;;;;;;;;25.43;34.36;99468.88;5061672;28;20007;-46
2022/05/01 12:15:13;;;;;;;;;;;;;;;24.83;32.73;99467.81;5061120;28;20293;-46
2022/05/01 12:17:39;;;;;;;;;;;;;;;26.14;34.64;99475.88;5064836;28;20058;-46
2022/05/01 12:20:05;;;;;;;;;;;;;;;24.87;33.73;99458.69;5065444;28;20194;-47
2022/05/01 12:22:37;;;;;;;;;;;;;;;25.59;32.59;99465.72;5064140;28;19932;-45
2022/05/01 12:25:02;;;;;;;;;;;;;;;25.50;35.51;99470.94;5066553;28;20449;-48
2022/05/01 12:27:27;;;;;;;;;;;;;;;25.46;33.82;99460.69;5066501;28;20075;-45
2022/05/01 12:29:53;;;;;;;;;;;;;;;27.06;33.55;99456.91;5064434;28;19922;-46
2022/05/01 12:32:18;;;;;;;;;;;;;;;26.47;33.09;99465.88;5064521;28;19930;-46
2022/05/01 12:34:44;;;;;;;;;;;;;;;27.05;34.06;99468.47;5061532;28;19936;-47
2022/05/01 12:37:13;;;;;;;;;;;;;;;24.89;33.78;99467.28;5060631;28;19920;-47
2022/05/01 12:39:39;;;;;;;;;;;;;;;25.65;34.40;99465.16;5063047;28;19923;-46
2022/05/01 12:45:02;;;;;;;;;;;;;;;27.98;33.66;99457.09;5059456;28;20589;-46
2022/05/01 12:47:31;;;;;;;;;;;;;;;25.87;34.18;99456.25;5060475;28;20176;-46
2022/05/01 12:49:56;;;;;;;;;;;;;;;25.85;34.91;99455.50;5060637;28;19920;-45
2022/05/01 12:52:32;;;;;;;;;;;;;;;25.21;34.51;99455.84;5063123;28;19942;-47
2022/05/01 12:55:23;;;;;;;;;;;;;;;26.31;34.76;99460.31;5060703;28;19920;-46
2022/05/01 12:57:49;;;;;;;;;;;;;;;23.82;35.22;99449.75;5058860;28;19931;-45
2022/05/01 13:00:32;;;;;;;;;;;;;;;25.63;35.82;99451.28;5063154;28;19964;-47
2022/05/01 13:02:59;;;;;;;;;;;;;;;25.34;34.82;99451.19;5060125;28;19916;-47
2022/05/01 13:05:24;;;;;;;;;;;;;;;24.59;34.97;99450.47;5057316;28;19985;-45
2022/05/01 13:07:50;;;;;;;;;;;;;;;24.97;35.05;99454.28;5063007;28;20007;-46
2022/05/01 13:10:18;;;;;;;;;;;;;;;26.19;36.60;99457.81;5061795;28;20003;-46
2022/05/01 13:12:43;;;;;;;;;;;;;;;25.90;34.67;99451.66;5065884;28;20131;-45
2022/05/01 13:15:10;;;;;;;;;;;;;;;25.60;34.50;99450.72;5060327;28;19931;-45
2022/05/01 13:17:36;;;;;;;;;;;;;;;25.09;34.37;99447.16;5061735;28;19932;-46